Dortmund, Germany

11:01 PM CEST on July 26, 2016 (GMT +0200)
Friedhofstraße | | Change Station

Elev 0 ft 51.50 °N, 7.63 °E | Updated 8 minutes ago

Clear
Clear
66.2 °F
Feels Like 66.2 °F
N
1.9
Wind Variable Wind from SSE
Gusts 3.1 mph

Today
High -- | Low -- °F
--% Chance of Precip.
Yesterday
High -- | Low -- °F
Precip. -- in
Pressure 30.09 in
Visibility -9999.0 miles
Clouds
Dew Point 60 °F
Humidity 79%
Rainfall 0.04 in
Snow Depth Not available.
5:44 AM 9:26 PM
Waning Gibbous, 51% visible
METAR EDDL 262050Z 17005KT 130V190 CAVOK 19/14 Q1019 NOSIG
Pressure 30.09 in
Visibility -9999.0 miles
Clouds
Dew Point 60 °F
Humidity 79%
Rainfall 0.04 in
Snow Depth Not available.
5:44 AM 9:26 PM
Waning Gibbous, 51% visible
METAR EDDL 262050Z 17005KT 130V190 CAVOK 19/14 Q1019 NOSIG

10-Day Weather Forecast

×

Almanac

Astronomy

Jul. 26, 2016 Rise Set
Actual Time
Civil Twilight
Nautical Twilight
Astronomical Twilight
Moon
Length of Visible Light
Length of Day
Tomorrow will be .
, % of the Moon is Illuminated

Today's Extremes

Country Highs Country Lows

Community

WunderPhotos

Upload Photos

1,927,688 photos uploaded!

WunderBlog® & News

Nearby

Air Quality

  Air Quality AQ Index Pollutant
Not available.

Snow Depth

Station Depth Elevation

Earthquake Activity

City Distance Mag. Time & Date
Minimum magnitude displayed is 2.5.

Coastal Water Temperatures

Place Temperature

Stations

Nearby Weather Stations

Station Location Temp. Windchill Dew Point Humidity Wind Precip. Elev Updated Type